Time;durP1;ratioP1;P1;durP2;ratioP2;P2;SDS_P1;SDS_P2;PMS_P1;PMS_P2;Temp;Humidity;BMP_temperature;BMP_pressure;BME280_temperature;BME280_humidity;BME280_pressure;Samples;Min_cycle;Max_cycle;Signal;HPM_P1;HPM_P2
2021/01/24 00:00:59;;;;;;;14.43;11.60;;;5.20;93.60;;;4.69;87.76;95852.09;5064368;28;20701;-68
2021/01/24 00:03:27;;;;;;;15.13;11.63;;;5.10;93.40;;;4.67;87.65;95858.31;5060313;28;20682;-68
2021/01/24 00:05:54;;;;;;;17.23;13.00;;;5.10;93.50;;;4.55;88.27;95859.28;5053858;28;20662;-68
2021/01/24 00:08:23;;;;;;;18.37;12.87;;;5.00;93.30;;;4.55;87.83;95859.28;5072189;28;21021;-68
2021/01/24 00:10:50;;;;;;;16.60;11.93;;;5.00;93.80;;;4.51;88.20;95857.91;5066281;28;20647;-68
2021/01/24 00:13:18;;;;;;;16.20;11.50;;;5.00;93.50;;;4.51;88.22;95863.09;5071864;28;20628;-68
2021/01/24 00:15:46;;;;;;;15.10;11.33;;;5.00;93.50;;;4.50;87.52;95860.63;5071853;28;21164;-68
2021/01/24 00:18:13;;;;;;;13.57;10.67;;;4.90;93.40;;;4.47;87.65;95861.69;5055888;28;20705;-68
2021/01/24 00:20:41;;;;;;;15.03;9.70;;;4.90;93.60;;;4.43;87.84;95859.47;5054047;28;20652;-68
2021/01/24 00:23:08;;;;;;;15.00;10.50;;;4.90;93.30;;;4.43;88.30;95854.31;5065580;28;21018;-68
2021/01/24 00:25:37;;;;;;;14.37;11.53;;;4.90;93.40;;;4.42;87.65;95855.25;5058060;28;20674;-68
2021/01/24 00:28:05;;;;;;;17.27;11.63;;;4.90;93.40;;;4.40;88.28;95859.72;5061470;28;21069;-68
2021/01/24 00:30:32;;;;;;;16.40;11.67;;;4.80;93.40;;;4.41;88.59;95862.16;5053930;28;20601;-68
2021/01/24 00:33:00;;;;;;;16.73;10.30;;;4.80;93.50;;;4.39;87.89;95858.91;5049353;28;20627;-68
2021/01/24 00:35:28;;;;;;;14.70;10.57;;;4.80;93.50;;;4.40;88.77;95870.03;5073181;28;20653;-68
2021/01/24 00:37:55;;;;;;;15.13;9.63;;;4.80;93.50;;;4.42;88.06;95860.41;5069138;28;20685;-68
2021/01/24 00:40:23;;;;;;;11.50;8.53;;;4.80;93.50;;;4.41;87.84;95867.31;5073805;28;20643;-68
2021/01/24 00:42:51;;;;;;;11.57;8.37;;;4.90;93.50;;;4.40;88.53;95859.72;5070030;28;21263;-68
2021/01/24 00:45:19;;;;;;;11.00;7.93;;;4.80;93.50;;;4.40;87.48;95860.53;5071339;28;20631;-68
2021/01/24 00:47:46;;;;;;;13.17;8.10;;;4.80;93.60;;;4.40;88.77;95864.88;5072648;28;20646;-68
2021/01/24 00:50:14;;;;;;;11.27;8.67;;;4.80;93.50;;;4.37;88.31;95862.53;5065854;28;20671;-68
2021/01/24 00:52:42;;;;;;;10.97;8.20;;;4.80;93.50;;;4.37;88.03;95870.28;5055698;28;20652;-68
2021/01/24 00:55:11;;;;;;;11.23;8.30;;;4.80;93.60;;;4.33;88.64;95867.13;5057066;28;20623;-68
2021/01/24 00:57:38;;;;;;;10.30;7.90;;;4.80;93.60;;;4.29;88.74;95864.91;5072267;28;20665;-68
2021/01/24 01:00:09;;;;;;;13.57;7.93;;;4.70;93.60;;;4.24;88.60;95864.47;5068751;28;20660;-68
2021/01/24 01:02:36;;;;;;;10.27;7.60;;;4.70;93.70;;;4.25;88.56;95859.19;5055132;28;20979;-68
2021/01/24 01:05:06;;;;;;;8.90;7.13;;;4.70;93.80;;;4.26;88.94;95865.97;5065436;28;20675;-68
2021/01/24 01:07:34;;;;;;;9.93;6.70;;;4.70;93.90;;;4.30;88.43;95866.53;5059359;28;20723;-68
2021/01/24 01:10:02;;;;;;;6.33;5.70;;;4.70;93.90;;;4.27;87.98;95864.22;5070605;28;20623;-68
2021/01/24 01:12:30;;;;;;;7.97;5.37;;;4.70;93.90;;;4.25;88.07;95866.94;5070548;28;21048;-68
2021/01/24 01:14:59;;;;;;;6.93;5.67;;;4.70;94.00;;;4.29;88.73;95857.97;5069093;28;20627;-68
2021/01/24 01:17:28;;;;;;;7.33;5.93;;;4.70;94.00;;;4.28;89.09;95856.38;5068576;28;20737;-68
2021/01/24 01:19:56;;;;;;;6.30;5.67;;;4.70;94.00;;;4.22;88.86;95850.84;5072531;28;20623;-68
2021/01/24 01:22:23;;;;;;;7.90;6.23;;;4.70;94.00;;;4.15;88.57;95849.72;5057302;28;20731;-68
2021/01/24 01:24:51;;;;;;;7.70;6.23;;;4.60;94.20;;;4.13;89.49;95850.78;5053713;28;20640;-68
2021/01/24 01:27:18;;;;;;;15.23;7.97;;;4.60;94.10;;;4.16;89.77;95851.34;5065576;28;21276;-68
2021/01/24 01:29:47;;;;;;;11.83;7.90;;;4.60;94.10;;;4.06;89.15;95853.03;5069684;28;20631;-68
2021/01/24 01:32:14;;;;;;;9.07;6.80;;;4.50;94.10;;;3.98;89.36;95857.94;5067875;28;20688;-68
2021/01/24 01:34:43;;;;;;;9.27;6.83;;;4.50;94.30;;;3.97;90.02;95853.75;5070897;28;21036;-68
2021/01/24 01:37:10;;;;;;;9.30;6.30;;;4.50;94.50;;;4.00;89.46;95855.25;5070475;28;21059;-68
2021/01/24 01:39:38;;;;;;;7.50;5.77;;;4.50;94.50;;;3.98;89.85;95857.94;5069606;28;20639;-68
2021/01/24 01:42:12;;;;;;;7.23;5.50;;;4.40;94.60;;;3.99;89.49;95859.59;5063574;28;20620;-68
2021/01/24 01:44:40;;;;;;;6.50;5.33;;;4.50;94.70;;;4.03;90.28;95848.09;5068093;28;20662;-68
2021/01/24 01:47:08;;;;;;;6.90;5.10;;;4.50;94.80;;;4.09;90.16;95857.09;5082594;28;20626;-68
2021/01/24 01:49:36;;;;;;;5.07;4.20;;;4.50;94.80;;;4.07;90.90;95846.09;5065223;28;20979;-68
2021/01/24 01:52:06;;;;;;;4.73;4.30;;;4.50;94.70;;;4.09;89.30;95850.22;5064076;28;20643;-68
2021/01/24 01:54:33;;;;;;;5.40;3.97;;;4.50;94.70;;;4.12;90.40;95849.13;5064202;28;21019;-68
2021/01/24 01:57:01;;;;;;;4.93;4.07;;;4.50;94.80;;;4.14;89.93;95847.25;5067071;28;20989;-68
2021/01/24 01:59:29;;;;;;;5.57;4.57;;;4.60;94.80;;;4.18;89.23;95840.91;5064764;28;21255;-68
2021/01/24 02:02:07;;;;;;;5.13;4.40;;;4.60;94.80;;;4.20;90.12;95841.63;5061226;28;20628;-68
2021/01/24 02:04:42;;;;;;;6.23;4.40;;;4.60;94.80;;;4.21;90.07;95837.16;5063004;28;20615;-68
2021/01/24 02:07:17;;;;;;;4.40;3.70;;;4.70;94.80;;;4.23;90.53;95843.00;5060897;28;20632;-68
2021/01/24 02:09:52;;;;;;;6.97;4.97;;;4.70;94.80;;;4.28;90.07;95843.47;5065404;28;20615;-68
2021/01/24 02:12:30;;;;;;;5.87;4.30;;;4.70;94.70;;;4.30;89.10;95848.47;5071409;28;21253;-68
2021/01/24 02:15:04;;;;;;;4.90;3.93;;;4.70;94.60;;;4.36;89.58;95846.25;5067011;28;20949;-68
2021/01/24 02:17:37;;;;;;;6.77;3.30;;;4.80;94.60;;;4.37;89.05;95842.72;5058874;28;20620;-68
2021/01/24 02:20:12;;;;;;;4.97;3.83;;;4.80;94.50;;;4.42;89.15;95853.50;5051319;28;20660;-68
2021/01/24 02:22:43;;;;;;;3.93;3.53;;;4.80;94.50;;;4.44;89.43;95851.59;5052548;28;20655;-68
2021/01/24 02:25:17;;;;;;;3.77;2.90;;;4.90;94.40;;;4.46;89.43;95852.28;5060755;28;20639;-68
2021/01/24 02:27:51;;;;;;;2.60;2.10;;;4.90;94.40;;;4.48;89.62;95847.00;5068748;28;21225;-68
2021/01/24 02:30:26;;;;;;;2.60;2.40;;;4.90;94.30;;;4.46;88.76;95843.75;5051675;28;20628;-68
2021/01/24 02:33:05;;;;;;;2.77;2.20;;;4.90;94.30;;;4.36;90.05;95854.00;5062328;28;20647;-68
2021/01/24 02:35:37;;;;;;;2.17;1.90;;;4.80;94.20;;;4.35;89.06;95859.28;5051967;28;21217;-68
2021/01/24 02:38:07;;;;;;;2.10;1.90;;;4.80;94.30;;;4.24;90.25;95860.13;5059776;28;20666;-68
2021/01/24 02:40:37;;;;;;;2.27;1.90;;;4.70;94.50;;;4.13;90.59;95871.41;5063304;28;20677;-68
2021/01/24 02:43:08;;;;;;;1.77;1.53;;;4.50;94.80;;;3.91;91.18;95884.31;5063093;28;20643;-68
2021/01/24 02:45:42;;;;;;;2.10;1.90;;;4.30;95.30;;;4.06;91.28;95917.47;5066353;28;20640;-68
2021/01/24 02:48:11;;;;;;;2.87;2.57;;;4.50;95.80;;;4.11;91.61;95928.25;5053093;28;20608;-68
2021/01/24 02:50:40;;;;;;;2.80;2.50;;;4.50;96.00;;;4.06;91.61;95932.09;5062074;28;20639;-68
2021/01/24 02:53:08;;;;;;;2.30;1.90;;;4.50;95.50;;;4.09;90.62;95937.03;5067019;28;20619;-68
2021/01/24 02:55:36;;;;;;;1.40;1.20;;;4.50;95.40;;;3.99;90.08;95942.09;5059950;28;20617;-67
2021/01/24 02:58:04;;;;;;;1.77;1.43;;;4.50;95.10;;;4.00;90.41;95953.22;5053549;28;20720;-67
2021/01/24 03:00:32;;;;;;;1.30;1.13;;;4.50;95.10;;;4.06;89.49;95963.88;5071075;28;21115;-67
2021/01/24 03:03:00;;;;;;;1.00;0.90;;;4.50;95.10;;;3.99;89.57;95964.47;5076404;28;20631;-67
2021/01/24 03:05:28;;;;;;;0.83;0.70;;;4.50;94.90;;;3.85;89.59;95964.72;5059316;28;20640;-67
2021/01/24 03:07:56;;;;;;;1.03;0.83;;;4.30;94.70;;;3.82;90.30;95983.81;5073826;28;20676;-67
2021/01/24 03:10:24;;;;;;;0.73;0.70;;;4.40;94.80;;;3.85;90.35;95981.00;5063211;28;20631;-67
2021/01/24 03:13:00;;;;;;;0.80;0.80;;;4.40;94.90;;;3.72;90.11;95992.34;5071074;28;20743;-67
2021/01/24 03:15:29;;;;;;;1.30;1.00;;;4.20;94.70;;;3.69;90.91;95991.75;5074692;28;20623;-67
2021/01/24 03:18:01;;;;;;;1.53;0.80;;;4.20;94.90;;;3.60;91.41;96000.19;5068271;28;20729;-67
2021/01/24 03:20:32;;;;;;;2.00;1.10;;;4.10;95.00;;;3.50;89.82;96004.34;5071400;28;20730;-67
2021/01/24 03:23:02;;;;;;;1.20;1.00;;;4.00;94.90;;;3.50;91.11;96012.94;5073768;28;20666;-67
2021/01/24 03:25:31;;;;;;;1.50;1.27;;;4.00;95.10;;;3.59;90.70;96019.94;5074471;28;20692;-67
2021/01/24 03:27:59;;;;;;;1.87;1.57;;;4.00;95.10;;;3.64;89.21;96027.34;5073654;28;21234;-67
2021/01/24 03:30:27;;;;;;;1.93;1.50;;;4.10;94.70;;;3.56;88.91;96027.91;5070756;28;20680;-67
2021/01/24 03:32:54;;;;;;;2.30;1.60;;;4.00;94.50;;;3.49;89.75;96025.91;5073440;28;21092;-67
2021/01/24 03:35:23;;;;;;;4.50;1.73;;;4.00;94.60;;;3.47;89.36;96035.50;5067993;28;20618;-68
2021/01/24 03:37:50;;;;;;;2.33;1.90;;;3.90;94.60;;;3.59;88.82;96035.41;5064246;28;20725;-68
2021/01/24 03:40:19;;;;;;;2.77;2.10;;;4.00;94.50;;;3.65;88.63;96045.25;5066925;28;20636;-67
2021/01/24 03:42:47;;;;;;;2.77;2.00;;;4.00;94.20;;;3.44;88.29;96057.16;5074568;28;21154;-67
2021/01/24 03:45:15;;;;;;;2.83;2.00;;;4.00;93.90;;;3.46;88.88;96060.44;5063767;28;21228;-67
2021/01/24 03:47:43;;;;;;;3.40;2.10;;;3.90;94.10;;;3.35;89.03;96062.16;5073812;28;21102;-67
2021/01/24 03:50:12;;;;;;;2.50;2.20;;;3.80;93.80;;;3.41;88.43;96072.84;5073373;28;20639;-67
2021/01/24 03:52:40;;;;;;;4.07;2.87;;;3.90;93.90;;;3.42;86.83;96082.19;5069350;28;21197;-67
2021/01/24 03:55:09;;;;;;;4.53;2.73;;;3.80;93.30;;;3.39;87.44;96069.53;5071314;28;20748;-67
2021/01/24 03:57:36;;;;;;;3.73;2.80;;;3.90;93.20;;;3.49;86.96;96080.03;5063693;28;20655;-67
2021/01/24 04:00:06;;;;;;;3.13;2.83;;;3.90;93.10;;;3.50;86.40;96079.91;5072815;28;21021;-67
2021/01/24 04:02:39;;;;;;;4.27;3.30;;;4.00;92.70;;;3.40;85.49;96085.84;5070308;28;21148;-67
2021/01/24 04:05:09;;;;;;;4.03;3.00;;;3.90;92.20;;;3.39;85.88;96087.56;5070282;28;20667;-67
2021/01/24 04:07:36;;;;;;;5.40;3.53;;;3.90;92.10;;;3.41;84.99;96095.19;5074006;28;20615;-67
2021/01/24 04:10:06;;;;;;;5.50;3.60;;;3.90;91.90;;;3.48;84.17;96092.06;5071402;28;21158;-67
2021/01/24 04:12:34;;;;;;;3.83;3.00;;;3.90;91.70;;;3.38;84.15;96096.25;5071339;28;20690;-67
2021/01/24 04:15:02;;;;;;;5.03;4.07;;;3.90;91.50;;;3.49;83.46;96106.59;5073403;28;21189;-67
2021/01/24 04:17:30;;;;;;;5.80;3.73;;;3.90;91.20;;;3.45;84.12;96100.00;5058368;28;20689;-67
2021/01/24 04:19:58;;;;;;;4.03;3.23;;;3.90;91.20;;;3.48;83.38;96104.94;5053332;28;21221;-67
2021/01/24 04:22:26;;;;;;;4.50;3.80;;;3.90;90.70;;;3.48;83.49;96122.16;5062249;28;20677;-67
2021/01/24 04:24:53;;;;;;;4.90;3.20;;;3.90;90.70;;;3.57;82.74;96124.88;5072242;28;21311;-67
2021/01/24 04:27:22;;;;;;;4.47;3.27;;;4.00;90.40;;;3.54;83.15;96113.97;5066233;28;21092;-67
2021/01/24 04:29:49;;;;;;;4.43;3.33;;;4.00;90.80;;;3.56;82.88;96122.41;5053614;28;20666;-67
2021/01/24 04:32:17;;;;;;;6.70;3.17;;;4.00;90.20;;;3.39;82.46;96125.38;5060018;28;20655;-67
2021/01/24 04:34:45;;;;;;;6.07;3.60;;;3.90;89.70;;;3.44;82.62;96133.59;5062277;28;21167;-67
2021/01/24 04:37:12;;;;;;;4.80;3.00;;;3.90;90.10;;;3.33;82.77;96125.84;5065171;28;20762;-67
2021/01/24 04:39:40;;;;;;;6.10;2.87;;;3.80;89.80;;;3.40;82.55;96140.75;5070840;28;20623;-67
2021/01/24 04:42:08;;;;;;;4.43;3.17;;;3.80;90.00;;;3.41;81.73;96134.66;5072058;28;20631;-67
2021/01/24 04:44:37;;;;;;;4.60;3.20;;;3.90;89.00;;;3.28;82.09;96140.78;5063764;28;20681;-67
2021/01/24 04:47:05;;;;;;;5.53;3.07;;;3.80;88.60;;;3.43;81.28;96144.84;5072135;28;20619;-67
2021/01/24 04:49:34;;;;;;;4.83;3.50;;;3.90;89.00;;;3.27;82.05;96140.91;5060773;28;20632;-67
2021/01/24 04:52:04;;;;;;;5.30;3.47;;;3.80;89.40;;;3.23;82.80;96147.19;5061381;28;20652;-67
2021/01/24 04:54:32;;;;;;;3.70;3.10;;;3.70;89.50;;;3.13;82.48;96153.91;5063810;28;20659;-67
2021/01/24 04:57:01;;;;;;;6.90;3.40;;;3.60;89.60;;;3.07;83.68;96154.38;5072401;28;20822;-67
2021/01/24 04:59:29;;;;;;;5.07;3.70;;;3.60;90.30;;;3.03;83.66;96161.47;5062202;28;20667;-69
2021/01/24 05:01:58;;;;;;;5.67;3.27;;;3.50;90.40;;;3.14;83.06;96161.53;5072447;28;20711;-68
2021/01/24 05:04:26;;;;;;;4.67;3.47;;;3.60;90.50;;;3.21;82.85;96177.38;5058766;28;20649;-68
2021/01/24 05:06:53;;;;;;;3.90;2.87;;;3.60;90.20;;;3.26;82.76;96170.97;5053628;28;20635;-68
2021/01/24 05:09:21;;;;;;;4.67;3.27;;;3.70;90.30;;;3.26;83.64;96178.69;5068932;28;21313;-68
2021/01/24 05:11:50;;;;;;;3.70;2.90;;;3.70;90.60;;;3.29;83.46;96179.31;5058842;28;20743;-68
2021/01/24 05:14:20;;;;;;;4.13;2.50;;;3.70;90.40;;;3.27;83.07;96181.16;5062300;28;20664;-68
2021/01/24 05:16:49;;;;;;;3.30;2.70;;;3.70;90.10;;;3.28;82.82;96190.53;5061690;28;20711;-68
2021/01/24 05:19:20;;;;;;;4.60;3.47;;;3.70;90.00;;;3.42;81.74;96185.22;5069339;28;21202;-68
2021/01/24 05:21:48;;;;;;;3.83;2.70;;;3.80;89.30;;;3.38;80.28;96180.41;5067702;28;20666;-68
2021/01/24 05:24:18;;;;;;;3.60;2.70;;;3.80;88.00;;;3.48;80.55;96181.41;5070693;28;20650;-68
2021/01/24 05:26:49;;;;;;;3.90;2.80;;;3.90;87.00;;;3.41;79.87;96181.03;5070871;28;20647;-68
2021/01/24 05:29:22;;;;;;;2.77;2.20;;;3.90;86.50;;;3.28;79.78;96169.94;5070074;28;20647;-68
2021/01/24 05:31:51;;;;;;;3.53;2.80;;;3.80;86.50;;;3.36;79.83;96183.09;5066799;28;20769;-68
2021/01/24 05:34:24;;;;;;;4.43;3.03;;;3.80;85.40;;;3.30;80.15;96186.09;5068418;28;20742;-68
2021/01/24 05:36:52;;;;;;;6.50;2.40;;;3.80;85.40;;;3.19;80.23;96174.91;5070845;28;20681;-68
2021/01/24 05:39:21;;;;;;;4.63;2.40;;;3.70;85.70;;;3.16;80.00;96180.28;5062826;28;20631;-67
2021/01/24 05:41:50;;;;;;;3.60;2.80;;;3.60;85.30;;;3.21;79.50;96178.19;5070959;28;20659;-67
2021/01/24 05:44:21;;;;;;;3.10;2.67;;;3.70;85.90;;;3.22;79.30;96179.84;5069673;28;20667;-67
2021/01/24 05:46:49;;;;;;;4.57;2.80;;;3.60;85.50;;;3.15;79.23;96175.25;5069686;28;20615;-67
2021/01/24 05:49:24;;;;;;;4.30;2.97;;;3.60;84.90;;;3.22;78.50;96181.59;5053476;28;20640;-67
2021/01/24 05:52:04;;;;;;;4.17;2.50;;;3.70;84.10;;;2.99;77.86;96192.66;5051101;28;20659;-67
2021/01/24 05:54:43;;;;;;;3.37;2.60;;;3.50;82.70;;;2.95;78.78;96201.56;5062416;28;20661;-67
2021/01/24 05:57:11;;;;;;;2.93;2.60;;;3.50;83.80;;;3.09;77.86;96214.28;5072137;28;20616;-67
2021/01/24 05:59:50;;;;;;;3.83;2.63;;;3.50;83.70;;;3.17;77.59;96222.28;5068753;28;20635;-67
2021/01/24 06:02:19;;;;;;;4.77;2.73;;;3.60;83.30;;;3.18;77.19;96223.94;5056990;28;20720;-67
2021/01/24 06:04:48;;;;;;;5.67;2.50;;;3.60;82.30;;;3.15;76.91;96219.00;5066307;28;20663;-67
2021/01/24 06:07:19;;;;;;;3.53;2.87;;;3.60;81.70;;;3.22;75.23;96230.50;5058468;28;20678;-67
2021/01/24 06:09:47;;;;;;;3.53;2.80;;;3.60;80.30;;;3.18;75.59;96232.47;5052465;28;20597;-67
2021/01/24 06:12:16;;;;;;;4.30;2.97;;;3.70;80.10;;;3.01;75.88;96239.75;5052930;28;20646;-67
2021/01/24 06:14:49;;;;;;;3.10;2.20;;;3.50;79.70;;;2.98;75.58;96242.53;5057524;28;20632;-67
2021/01/24 06:17:29;;;;;;;4.87;2.57;;;3.50;80.10;;;3.18;74.94;96247.13;5060246;28;20627;-67
2021/01/24 06:20:00;;;;;;;3.80;2.43;;;3.60;79.60;;;3.23;74.60;96252.78;5069580;28;21046;-67
2021/01/24 06:22:36;;;;;;;4.20;2.93;;;3.70;79.70;;;3.11;73.68;96245.88;5065242;28;21190;-69
2021/01/24 06:25:12;;;;;;;3.57;2.50;;;3.60;78.40;;;3.15;74.42;96252.47;5069525;28;20654;-68
2021/01/24 06:27:46;;;;;;;3.37;2.77;;;3.60;78.70;;;3.02;74.49;96249.94;5062764;28;20659;-68
2021/01/24 06:30:17;;;;;;;7.07;3.00;;;3.50;78.70;;;2.81;75.17;96258.25;5071080;28;20638;-68
2021/01/24 06:32:44;;;;;;;4.27;3.13;;;3.30;78.60;;;2.91;75.25;96267.84;5059758;28;20677;-68
2021/01/24 06:35:19;;;;;;;6.03;3.03;;;3.40;79.10;;;3.01;75.07;96270.63;5052017;28;21046;-68
2021/01/24 06:37:59;;;;;;;5.60;3.47;;;3.50;79.20;;;2.96;75.87;96277.81;5065968;28;20731;-68
2021/01/24 06:40:30;;;;;;;4.53;3.20;;;3.50;79.90;;;3.07;74.85;96276.19;5076394;28;20645;-68
2021/01/24 06:43:00;;;;;;;7.23;3.43;;;3.50;80.00;;;2.85;76.76;96281.13;5073200;28;21190;-68
2021/01/24 06:45:43;;;;;;;5.37;3.20;;;3.40;80.70;;;2.86;76.37;96289.69;5057063;28;20624;-68
2021/01/24 06:48:15;;;;;;;4.70;3.03;;;3.40;80.60;;;2.79;76.19;96282.47;5066099;28;20702;-68
2021/01/24 06:50:47;;;;;;;4.90;4.40;;;3.30;80.50;;;2.72;76.39;96282.06;5065660;28;20635;-68
2021/01/24 06:53:21;;;;;;;4.13;3.27;;;3.20;80.90;;;2.50;77.75;96283.59;5075083;28;21212;-68
2021/01/24 06:55:58;;;;;;;6.30;3.30;;;3.00;81.40;;;2.50;77.73;96304.16;5065197;28;20627;-68
2021/01/24 06:58:30;;;;;;;5.00;3.53;;;3.00;81.50;;;2.30;78.26;96303.78;5075055;28;20672;-67
2021/01/24 07:01:28;;;;;;;4.67;3.53;;;2.80;82.50;;;2.31;78.73;96293.41;5071912;28;20638;-67
2021/01/24 07:04:39;;;;;;;5.00;3.13;;;2.80;83.00;;;2.24;78.44;96304.19;5060412;28;20616;-67
2021/01/24 07:07:33;;;;;;;4.80;3.37;;;2.80;84.00;;;2.29;78.75;96307.31;5073218;28;20765;-67
2021/01/24 07:10:05;;;;;;;5.00;3.40;;;2.70;84.20;;;2.43;78.56;96332.00;5074426;28;20631;-67
2021/01/24 07:12:42;;;;;;;5.23;3.30;;;2.80;83.70;;;2.34;78.50;96330.03;5074729;28;20647;-67
2021/01/24 07:15:22;;;;;;;6.50;3.20;;;2.80;83.50;;;2.32;79.41;96336.22;5068446;28;20665;-67
2021/01/24 07:17:58;;;;;;;5.47;3.53;;;2.80;85.30;;;2.36;79.59;96325.63;5075606;28;20616;-67
2021/01/24 07:20:26;;;;;;;6.43;3.50;;;2.80;84.60;;;2.41;79.65;96344.16;5070747;28;20624;-67
2021/01/24 07:22:56;;;;;;;4.63;3.50;;;2.80;85.40;;;2.46;79.28;96339.53;5055652;28;20654;-67
2021/01/24 07:25:24;;;;;;;5.53;3.60;;;2.90;84.60;;;2.36;79.74;96343.63;5071013;28;20663;-67
2021/01/24 07:27:55;;;;;;;5.90;3.90;;;2.80;85.30;;;2.29;79.91;96343.31;5060582;28;20648;-67
2021/01/24 07:30:26;;;;;;;3.90;3.27;;;2.70;85.60;;;2.39;80.19;96350.28;5073629;28;20659;-67
2021/01/24 07:32:54;;;;;;;5.27;3.63;;;2.80;85.90;;;2.36;79.64;96340.22;5060690;28;21284;-67
2021/01/24 07:35:22;;;;;;;4.83;3.07;;;2.80;86.00;;;2.38;80.36;96344.34;5053691;28;21144;-67
2021/01/24 07:37:51;;;;;;;5.20;3.30;;;2.80;86.20;;;2.44;79.82;96349.09;5072969;28;20631;-69
2021/01/24 07:40:21;;;;;;;4.70;3.83;;;2.80;85.40;;;2.48;79.58;96354.84;5070608;28;20989;-68
2021/01/24 07:42:54;;;;;;;5.40;3.03;;;2.90;85.00;;;2.56;78.82;96355.19;5072637;28;20710;-69
2021/01/24 07:45:22;;;;;;;5.53;3.73;;;2.90;85.30;;;2.59;78.88;96349.84;5070906;28;20631;-68
2021/01/24 07:47:50;;;;;;;5.00;2.87;;;3.00;84.80;;;2.58;78.38;96345.63;5072325;28;20653;-68
2021/01/24 07:50:18;;;;;;;3.73;2.60;;;3.00;84.20;;;2.65;77.74;96350.28;5071693;28;20671;-69
2021/01/24 07:52:49;;;;;;;5.43;2.73;;;3.10;83.40;;;2.63;78.22;96353.84;5070377;28;20663;-68
2021/01/24 07:55:17;;;;;;;3.53;2.60;;;3.10;83.10;;;2.68;77.60;96359.56;5072835;28;20631;-68
2021/01/24 07:57:46;;;;;;;4.27;3.20;;;3.10;82.80;;;2.65;77.13;96362.31;5053737;28;20656;-69
2021/01/24 08:00:14;;;;;;;3.33;2.70;;;3.10;82.10;;;2.81;77.40;96369.75;5067118;28;20667;-68
2021/01/24 08:02:42;;;;;;;5.60;2.87;;;3.20;82.80;;;2.79;76.42;96379.31;5035309;28;20596;-68
2021/01/24 08:05:12;;;;;;;3.23;2.33;;;3.20;81.30;;;2.79;77.37;96383.63;5071609;28;20655;-68
2021/01/24 08:07:40;;;;;;;4.87;2.30;;;3.30;82.80;;;2.75;77.91;96376.22;5071756;28;20622;-68
2021/01/24 08:10:09;;;;;;;4.63;2.70;;;3.20;83.10;;;2.88;77.20;96380.47;5063708;28;20663;-68
2021/01/24 08:12:36;;;;;;;3.27;2.27;;;3.30;82.50;;;2.90;76.42;96387.16;5065616;28;21283;-68
2021/01/24 08:15:08;;;;;;;3.50;2.10;;;3.30;81.50;;;2.91;77.48;96391.38;5072602;28;20620;-68
2021/01/24 08:17:37;;;;;;;6.00;2.70;;;3.30;82.10;;;3.01;76.81;96383.88;5066241;28;20631;-68
2021/01/24 08:20:07;;;;;;;2.60;2.40;;;3.40;81.30;;;2.97;76.78;96392.72;5070126;28;20630;-68
2021/01/24 08:22:35;;;;;;;4.37;2.63;;;3.40;81.30;;;2.97;76.49;96393.53;5072722;28;20655;-68
2021/01/24 08:25:05;;;;;;;3.17;2.57;;;3.40;81.30;;;2.93;77.28;96402.41;5070504;28;21084;-68
2021/01/24 08:27:35;;;;;;;4.23;3.10;;;3.40;82.40;;;3.08;77.15;96408.28;5072237;28;21280;-68
2021/01/24 08:30:04;;;;;;;4.03;2.57;;;3.50;81.90;;;2.88;76.78;96406.19;5039223;28;639631;-68
2021/01/24 08:32:34;;;;;;;3.47;2.80;;;3.40;82.00;;;2.93;77.07;96404.97;5063066;28;20747;-68
2021/01/24 08:35:01;;;;;;;4.60;2.80;;;3.40;81.70;;;3.01;77.38;96407.06;5054114;28;21238;-68
2021/01/24 08:37:30;;;;;;;3.37;2.47;;;3.50;82.40;;;3.04;77.02;96405.09;5054135;28;20710;-68
2021/01/24 08:39:58;;;;;;;3.37;2.67;;;3.50;82.30;;;3.04;77.49;96412.00;5058492;28;20682;-68
2021/01/24 08:42:44;;;;;;;4.57;3.17;;;3.50;82.60;;;3.12;77.38;96409.75;5053512;28;20969;-68
2021/01/24 08:45:19;;;;;;;4.60;3.00;;;3.50;83.30;;;3.20;77.74;96405.72;5059479;28;20694;-68
2021/01/24 08:47:55;;;;;;;4.00;2.60;;;3.60;82.20;;;3.24;77.38;96419.22;5069130;28;20726;-68
2021/01/24 08:50:24;;;;;;;2.90;2.50;;;3.60;82.10;;;3.26;76.46;96422.53;5062110;28;20673;-68
2021/01/24 08:52:58;;;;;;;5.50;2.87;;;3.70;81.40;;;3.31;76.46;96432.41;5072095;28;21291;-68
2021/01/24 08:55:27;;;;;;;4.33;3.07;;;3.70;80.90;;;3.43;75.88;96421.28;5061893;28;20611;-68
2021/01/24 08:57:55;;;;;;;3.67;2.50;;;3.80;80.70;;;3.54;75.18;96429.13;5070106;28;20701;-68
2021/01/24 09:00:24;;;;;;;8.43;3.13;;;3.90;79.90;;;3.53;75.60;96431.78;5072150;28;20623;-68
2021/01/24 09:03:23;;;;;;;5.37;2.73;;;3.90;80.00;;;3.39;75.67;96426.75;5109053;27;20821;-71
2021/01/24 09:05:50;;;;;;;3.60;2.60;;;3.90;79.90;;;3.50;76.10;96435.41;5088799;28;20626;-70
2021/01/24 09:08:28;;;;;;;3.30;2.50;;;3.90;80.30;;;3.59;75.72;96442.50;5089447;28;20615;-72
2021/01/24 09:10:56;;;;;;;3.03;2.73;;;4.00;80.50;;;3.55;76.14;96440.22;5078054;28;20692;-72
2021/01/24 09:13:24;;;;;;;4.53;3.33;;;4.00;80.60;;;3.43;82.57;96441.09;5079457;28;21243;-70
2021/01/24 09:15:52;;;;;;;3.47;2.70;;;3.90;86.40;;;3.41;81.60;96441.19;5084060;28;20651;-71
2021/01/24 09:18:20;;;;;;;3.33;3.03;;;3.90;85.90;;;3.27;80.84;96446.41;5086014;28;21174;-70
2021/01/24 09:20:48;;;;;;;4.97;3.70;;;3.80;86.20;;;3.27;81.40;96455.09;5088520;28;20962;-72
2021/01/24 09:23:15;;;;;;;7.13;3.80;;;3.80;86.70;;;3.43;81.24;96456.53;5088808;28;20631;-72
2021/01/24 09:25:43;;;;;;;5.10;3.90;;;3.90;87.10;;;3.40;81.33;96452.41;5085134;28;20634;-70
2021/01/24 09:28:10;;;;;;;4.00;2.97;;;3.90;87.50;;;3.29;82.01;96454.88;5069186;28;21238;-71
2021/01/24 09:30:38;;;;;;;5.40;3.60;;;3.80;87.70;;;3.36;82.62;96461.25;5068668;28;20674;-71
2021/01/24 09:33:05;;;;;;;5.70;3.20;;;3.80;88.50;;;3.40;82.46;96461.91;5070557;28;21167;-71
2021/01/24 09:35:34;;;;;;;4.83;3.27;;;3.90;88.50;;;3.38;81.64;96464.56;5088186;28;20592;-71
2021/01/24 09:38:02;;;;;;;4.77;3.60;;;3.90;88.40;;;3.38;82.60;96474.88;5079008;28;20638;-70
2021/01/24 09:40:29;;;;;;;5.70;3.47;;;3.90;89.50;;;3.40;82.67;96467.88;5087116;28;20600;-70
2021/01/24 09:43:00;;;;;;;3.70;3.10;;;3.90;89.30;;;3.31;82.77;96475.38;5071411;28;20655;-70
2021/01/24 09:45:27;;;;;;;3.30;3.00;;;3.80;89.60;;;3.28;82.62;96478.97;5084401;28;20626;-71
2021/01/24 09:47:56;;;;;;;4.57;2.87;;;3.80;89.90;;;3.26;83.41;96487.72;5084113;28;20639;-71
2021/01/24 09:50:24;;;;;;;4.00;3.10;;;3.70;90.10;;;3.32;83.79;96475.28;5080552;28;20624;-71
2021/01/24 09:52:53;;;;;;;9.40;3.53;;;3.80;90.20;;;3.31;83.09;96483.09;5086792;28;20625;-70
2021/01/24 09:55:20;;;;;;;5.73;2.93;;;3.80;90.10;;;3.30;83.06;96495.13;5079259;28;20639;-70
2021/01/24 09:57:48;;;;;;;4.50;2.80;;;3.80;90.20;;;3.13;84.05;96493.75;5078247;28;20623;-70
2021/01/24 10:00:20;;;;;;;6.57;3.70;;;3.70;90.50;;;3.18;84.00;96494.31;5074223;28;20656;-69
2021/01/24 10:02:47;;;;;;;5.17;4.13;;;3.60;90.80;;;3.22;83.94;96493.16;5079533;28;20749;-69
2021/01/24 10:05:15;;;;;;;6.00;4.43;;;3.70;91.00;;;3.26;84.19;96494.63;5078556;28;20635;-69
2021/01/24 10:07:43;;;;;;;5.73;3.57;;;3.70;90.80;;;3.27;84.28;96497.91;5081613;28;20703;-69
2021/01/24 10:10:14;;;;;;;4.47;3.70;;;3.70;90.70;;;3.17;84.91;96495.22;5073261;28;20627;-70
2021/01/24 10:12:41;;;;;;;5.33;3.23;;;3.70;91.00;;;3.05;86.11;96506.31;5065117;28;20628;-69
2021/01/24 10:15:11;;;;;;;4.10;3.70;;;3.50;92.30;;;3.18;85.89;96502.03;5060631;28;21230;-69
2021/01/24 10:17:38;;;;;;;6.70;4.50;;;3.60;92.30;;;3.27;86.11;96513.38;5068660;28;20626;-70
2021/01/24 10:20:10;;;;;;;6.40;4.17;;;3.70;92.30;;;3.24;85.90;96522.25;5070489;28;20677;-69
2021/01/24 10:22:38;;;;;;;6.00;3.77;;;3.60;92.20;;;3.26;86.20;96512.66;5060182;28;20654;-68
2021/01/24 10:25:07;;;;;;;5.23;3.83;;;3.60;92.40;;;3.27;86.49;96521.09;5058535;28;20668;-69
2021/01/24 10:27:36;;;;;;;6.93;4.43;;;3.70;92.40;;;3.25;86.01;96517.00;5060882;28;20656;-69
2021/01/24 10:30:06;;;;;;;5.33;3.80;;;3.70;92.40;;;3.15;87.18;96515.09;5057870;28;20639;-69
2021/01/24 10:32:34;;;;;;;6.27;4.57;;;3.50;92.60;;;3.04;87.60;96515.78;5058367;28;20615;-69
2021/01/24 10:35:02;;;;;;;6.93;4.07;;;3.50;92.70;;;3.13;87.30;96514.34;5058665;28;20623;-69
2021/01/24 10:37:30;;;;;;;6.10;4.57;;;3.60;93.00;;;3.24;86.68;96522.25;5057996;28;20620;-69
2021/01/24 10:39:58;;;;;;;6.20;4.27;;;3.70;92.90;;;3.08;87.39;96517.25;5062418;28;20625;-69
2021/01/24 10:42:25;;;;;;;6.93;4.70;;;3.60;92.90;;;3.13;87.31;96522.94;5057756;28;20655;-69
2021/01/24 10:44:54;;;;;;;6.70;4.63;;;3.60;93.00;;;3.24;86.37;96523.06;5059022;28;20616;-69